sensor_id;sensor_type;location;lat;lon;timestamp;pressure;altitude;pressure_sealevel;temperature;humidity
44872;BME280;30602;51.060;17.226;2023-04-27T00:01:14;101801.41;;;4.08;79.04
44872;BME280;30602;51.060;17.226;2023-04-27T00:05:19;101802.41;;;4.03;79.13
44872;BME280;30602;51.060;17.226;2023-04-27T00:09:00;101795.90;;;3.98;79.28
44872;BME280;30602;51.060;17.226;2023-04-27T00:12:43;101796.09;;;3.92;79.55
44872;BME280;30602;51.060;17.226;2023-04-27T00:16:27;101798.39;;;3.79;80.90
44872;BME280;30602;51.060;17.226;2023-04-27T00:19:46;101795.05;;;3.72;81.65
44872;BME280;30602;51.060;17.226;2023-04-27T00:23:07;101794.65;;;3.62;82.27
44872;BME280;30602;51.060;17.226;2023-04-27T00:26:29;101791.27;;;3.62;82.49
44872;BME280;30602;51.060;17.226;2023-04-27T00:30:10;101788.45;;;3.57;82.83
44872;BME280;30602;51.060;17.226;2023-04-27T00:34:17;101790.69;;;3.53;82.56
44872;BME280;30602;51.060;17.226;2023-04-27T00:37:40;101792.39;;;3.51;82.25
44872;BME280;30602;51.060;17.226;2023-04-27T00:41:36;101795.95;;;3.42;82.06
44872;BME280;30602;51.060;17.226;2023-04-27T00:45:34;101799.15;;;3.41;81.98
44872;BME280;30602;51.060;17.226;2023-04-27T00:49:16;101803.21;;;3.34;82.04
44872;BME280;30602;51.060;17.226;2023-04-27T00:53:00;101804.59;;;3.27;82.32
44872;BME280;30602;51.060;17.226;2023-04-27T00:56:43;101799.48;;;3.19;82.48
44872;BME280;30602;51.060;17.226;2023-04-27T01:00:13;101804.76;;;3.24;81.78
44872;BME280;30602;51.060;17.226;2023-04-27T01:03:56;101806.88;;;3.12;82.78
44872;BME280;30602;51.060;17.226;2023-04-27T01:07:16;101806.80;;;3.17;82.92
44872;BME280;30602;51.060;17.226;2023-04-27T01:10:57;101789.29;;;3.04;83.70
44872;BME280;30602;51.060;17.226;2023-04-27T01:14:43;101800.91;;;3.04;84.37
44872;BME280;30602;51.060;17.226;2023-04-27T01:18:06;101802.89;;;3.07;84.45
44872;BME280;30602;51.060;17.226;2023-04-27T01:25:26;101805.45;;;2.90;85.04
44872;BME280;30602;51.060;17.226;2023-04-27T01:29:31;101805.38;;;2.78;85.24
44872;BME280;30602;51.060;17.226;2023-04-27T01:33:24;101810.85;;;2.72;85.73
44872;BME280;30602;51.060;17.226;2023-04-27T01:36:48;101809.87;;;2.67;85.80
44872;BME280;30602;51.060;17.226;2023-04-27T01:40:41;101815.55;;;2.57;86.30
44872;BME280;30602;51.060;17.226;2023-04-27T01:44:20;101818.68;;;2.54;87.01
44872;BME280;30602;51.060;17.226;2023-04-27T01:48:39;101818.10;;;2.35;87.19
44872;BME280;30602;51.060;17.226;2023-04-27T01:52:01;101819.79;;;2.20;88.02
44872;BME280;30602;51.060;17.226;2023-04-27T01:55:22;101814.18;;;1.95;88.27
44872;BME280;30602;51.060;17.226;2023-04-27T01:59:38;101820.20;;;1.99;88.59
44872;BME280;30602;51.060;17.226;2023-04-27T02:02:58;101825.84;;;1.89;88.40
44872;BME280;30602;51.060;17.226;2023-04-27T02:06:34;101826.71;;;1.71;88.56
44872;BME280;30602;51.060;17.226;2023-04-27T02:10:16;101825.66;;;1.73;88.78
44872;BME280;30602;51.060;17.226;2023-04-27T02:14:07;101826.74;;;1.62;89.15
44872;BME280;30602;51.060;17.226;2023-04-27T02:18:11;101814.96;;;1.46;89.27
44872;BME280;30602;51.060;17.226;2023-04-27T02:22:23;101827.55;;;1.56;89.54
44872;BME280;30602;51.060;17.226;2023-04-27T02:25:45;101830.54;;;1.49;89.81
44872;BME280;30602;51.060;17.226;2023-04-27T02:29:41;101833.54;;;1.39;89.97
44872;BME280;30602;51.060;17.226;2023-04-27T02:37:11;101836.53;;;1.42;89.96
44872;BME280;30602;51.060;17.226;2023-04-27T02:40:53;101835.98;;;1.41;90.08
44872;BME280;30602;51.060;17.226;2023-04-27T02:48:17;101837.30;;;1.60;90.33
44872;BME280;30602;51.060;17.226;2023-04-27T02:51:39;101835.94;;;1.87;88.94
44872;BME280;30602;51.060;17.226;2023-04-27T02:55:08;101836.66;;;1.95;88.38
44872;BME280;30602;51.060;17.226;2023-04-27T02:58:29;101840.84;;;1.93;88.63
44872;BME280;30602;51.060;17.226;2023-04-27T03:02:20;101842.86;;;1.88;88.66
44872;BME280;30602;51.060;17.226;2023-04-27T03:06:35;101842.48;;;1.74;89.08
44872;BME280;30602;51.060;17.226;2023-04-27T03:09:57;101842.44;;;1.74;89.21
44872;BME280;30602;51.060;17.226;2023-04-27T03:13:50;101845.23;;;1.57;89.43
44872;BME280;30602;51.060;17.226;2023-04-27T03:17:09;101850.04;;;1.45;89.87
44872;BME280;30602;51.060;17.226;2023-04-27T03:20:42;101850.58;;;1.37;90.10
44872;BME280;30602;51.060;17.226;2023-04-27T03:24:29;101852.78;;;1.34;90.17
44872;BME280;30602;51.060;17.226;2023-04-27T03:28:19;101852.81;;;1.27;90.46
44872;BME280;30602;51.060;17.226;2023-04-27T03:32:23;101853.30;;;1.12;90.10
44872;BME280;30602;51.060;17.226;2023-04-27T03:36:31;101858.02;;;1.09;90.53
44872;BME280;30602;51.060;17.226;2023-04-27T03:40:04;101866.06;;;0.96;90.91
44872;BME280;30602;51.060;17.226;2023-04-27T03:43:39;101868.38;;;0.82;90.89
44872;BME280;30602;51.060;17.226;2023-04-27T03:47:28;101870.33;;;0.84;91.25
44872;BME280;30602;51.060;17.226;2023-04-27T03:50:49;101871.90;;;1.01;92.07
44872;BME280;30602;51.060;17.226;2023-04-27T03:54:25;101881.80;;;1.05;92.77
44872;BME280;30602;51.060;17.226;2023-04-27T03:58:05;101885.94;;;1.00;93.49
44872;BME280;30602;51.060;17.226;2023-04-27T04:01:27;101885.05;;;1.04;93.76
44872;BME280;30602;51.060;17.226;2023-04-27T04:04:51;101889.66;;;1.13;94.18
44872;BME280;30602;51.060;17.226;2023-04-27T04:08:15;101888.73;;;1.14;94.34
44872;BME280;30602;51.060;17.226;2023-04-27T04:12:27;101892.13;;;1.21;94.64
44872;BME280;30602;51.060;17.226;2023-04-27T04:16:06;101892.82;;;1.33;94.87
44872;BME280;30602;51.060;17.226;2023-04-27T04:20:10;101897.87;;;1.39;95.01
44872;BME280;30602;51.060;17.226;2023-04-27T04:23:46;101902.20;;;1.52;95.19
44872;BME280;30602;51.060;17.226;2023-04-27T04:27:41;101903.12;;;1.73;95.27
44872;BME280;30602;51.060;17.226;2023-04-27T04:31:19;101906.59;;;1.95;94.80
44872;BME280;30602;51.060;17.226;2023-04-27T04:35:52;101896.12;;;2.17;94.17
44872;BME280;30602;51.060;17.226;2023-04-27T04:39:44;101909.30;;;2.61;92.65
44872;BME280;30602;51.060;17.226;2023-04-27T04:43:52;101910.94;;;3.04;89.87
44872;BME280;30602;51.060;17.226;2023-04-27T04:47:15;101910.83;;;3.34;87.86
44872;BME280;30602;51.060;17.226;2023-04-27T04:50:49;101908.30;;;3.61;85.23
44872;BME280;30602;51.060;17.226;2023-04-27T04:54:41;101908.49;;;3.88;84.15
44872;BME280;30602;51.060;17.226;2023-04-27T04:58:15;101918.56;;;4.09;82.33
44872;BME280;30602;51.060;17.226;2023-04-27T05:02:49;101918.12;;;4.17;80.72
44872;BME280;30602;51.060;17.226;2023-04-27T05:06:49;101921.31;;;4.30;79.92
44872;BME280;30602;51.060;17.226;2023-04-27T05:10:10;101931.31;;;4.47;79.83
44872;BME280;30602;51.060;17.226;2023-04-27T05:13:49;101928.66;;;4.43;78.74
44872;BME280;30602;51.060;17.226;2023-04-27T05:17:09;101916.79;;;4.37;78.80
44872;BME280;30602;51.060;17.226;2023-04-27T05:20:55;101931.99;;;4.60;80.44
44872;BME280;30602;51.060;17.226;2023-04-27T05:25:11;101936.52;;;4.58;78.10
44872;BME280;30602;51.060;17.226;2023-04-27T05:28:41;101943.59;;;4.81;77.67
44872;BME280;30602;51.060;17.226;2023-04-27T05:32:02;101942.36;;;4.93;76.41
44872;BME280;30602;51.060;17.226;2023-04-27T05:35:51;101943.17;;;4.98;77.19
44872;BME280;30602;51.060;17.226;2023-04-27T05:39:12;101947.03;;;4.95;75.93
44872;BME280;30602;51.060;17.226;2023-04-27T05:42:48;101942.78;;;4.99;77.08
44872;BME280;30602;51.060;17.226;2023-04-27T05:46:12;101943.94;;;5.04;75.65
44872;BME280;30602;51.060;17.226;2023-04-27T05:49:57;101936.44;;;5.06;75.86
44872;BME280;30602;51.060;17.226;2023-04-27T05:53:37;101951.36;;;5.27;75.23
44872;BME280;30602;51.060;17.226;2023-04-27T05:57:18;101952.50;;;5.44;74.34
44872;BME280;30602;51.060;17.226;2023-04-27T06:01:04;101947.16;;;5.58;74.24
44872;BME280;30602;51.060;17.226;2023-04-27T06:04:57;101957.39;;;5.66;72.77
44872;BME280;30602;51.060;17.226;2023-04-27T06:08:27;101961.63;;;5.58;72.59
44872;BME280;30602;51.060;17.226;2023-04-27T06:12:04;101958.03;;;5.70;72.89
44872;BME280;30602;51.060;17.226;2023-04-27T06:19:17;101957.62;;;6.15;71.92
44872;BME280;30602;51.060;17.226;2023-04-27T06:23:22;101957.40;;;6.21;70.12
44872;BME280;30602;51.060;17.226;2023-04-27T06:27:15;101957.57;;;6.43;70.17
44872;BME280;30602;51.060;17.226;2023-04-27T06:31:01;101963.19;;;6.38;67.94
44872;BME280;30602;51.060;17.226;2023-04-27T06:34:46;101960.73;;;6.38;67.13
44872;BME280;30602;51.060;17.226;2023-04-27T06:38:21;101952.86;;;6.79;67.32
44872;BME280;30602;51.060;17.226;2023-04-27T06:42:44;101956.90;;;6.96;65.41
44872;BME280;30602;51.060;17.226;2023-04-27T06:46:09;101937.87;;;7.04;64.55
44872;BME280;30602;51.060;17.226;2023-04-27T06:49:30;101951.45;;;7.29;64.52
44872;BME280;30602;51.060;17.226;2023-04-27T06:53:33;101953.50;;;7.47;65.38
44872;BME280;30602;51.060;17.226;2023-04-27T07:01:14;101941.34;;;7.95;63.10
44872;BME280;30602;51.060;17.226;2023-04-27T07:04:55;101943.71;;;8.04;60.89
44872;BME280;30602;51.060;17.226;2023-04-27T07:08:16;101945.16;;;8.39;62.41
44872;BME280;30602;51.060;17.226;2023-04-27T07:11:36;101943.72;;;8.45;61.96
44872;BME280;30602;51.060;17.226;2023-04-27T07:15:15;101942.70;;;8.20;60.75
44872;BME280;30602;51.060;17.226;2023-04-27T07:18:34;101943.08;;;8.27;61.20
44872;BME280;30602;51.060;17.226;2023-04-27T07:22:47;101939.52;;;8.50;61.35
44872;BME280;30602;51.060;17.226;2023-04-27T07:26:09;101940.79;;;8.57;60.26
44872;BME280;30602;51.060;17.226;2023-04-27T07:30:11;101938.00;;;8.82;60.83
44872;BME280;30602;51.060;17.226;2023-04-27T07:33:57;101910.66;;;9.00;60.35
44872;BME280;30602;51.060;17.226;2023-04-27T07:38:00;101941.36;;;9.38;59.82
44872;BME280;30602;51.060;17.226;2023-04-27T07:41:21;101939.22;;;9.22;57.96
44872;BME280;30602;51.060;17.226;2023-04-27T07:45:07;101932.61;;;9.48;57.10
44872;BME280;30602;51.060;17.226;2023-04-27T07:48:45;101930.55;;;9.52;57.24
44872;BME280;30602;51.060;17.226;2023-04-27T07:52:27;101932.54;;;9.75;57.82
44872;BME280;30602;51.060;17.226;2023-04-27T07:55:49;101933.30;;;9.98;56.69
44872;BME280;30602;51.060;17.226;2023-04-27T07:59:32;101942.80;;;9.39;56.43
44872;BME280;30602;51.060;17.226;2023-04-27T08:03:46;101946.30;;;9.32;58.44
44872;BME280;30602;51.060;17.226;2023-04-27T08:07:26;101945.33;;;9.19;56.33
44872;BME280;30602;51.060;17.226;2023-04-27T08:11:12;101947.39;;;9.33;55.83
44872;BME280;30602;51.060;17.226;2023-04-27T08:14:57;101946.55;;;9.68;55.11
44872;BME280;30602;51.060;17.226;2023-04-27T08:18:36;101949.28;;;9.87;54.19
44872;BME280;30602;51.060;17.226;2023-04-27T08:22:29;101950.61;;;9.82;52.79
44872;BME280;30602;51.060;17.226;2023-04-27T08:26:56;101947.44;;;9.70;50.70
44872;BME280;30602;51.060;17.226;2023-04-27T08:30:36;101949.85;;;9.73;54.22
44872;BME280;30602;51.060;17.226;2023-04-27T08:34:18;101954.07;;;9.74;51.08
44872;BME280;30602;51.060;17.226;2023-04-27T08:37:37;101952.70;;;9.93;51.97
44872;BME280;30602;51.060;17.226;2023-04-27T08:41:30;101952.88;;;9.75;50.72
44872;BME280;30602;51.060;17.226;2023-04-27T08:45:06;101949.93;;;9.93;50.99
44872;BME280;30602;51.060;17.226;2023-04-27T08:49:02;101955.67;;;9.73;50.14
44872;BME280;30602;51.060;17.226;2023-04-27T08:52:23;101957.02;;;10.11;52.21
44872;BME280;30602;51.060;17.226;2023-04-27T08:55:47;101953.58;;;10.48;52.92
44872;BME280;30602;51.060;17.226;2023-04-27T08:59:14;101956.38;;;10.38;51.04
44872;BME280;30602;51.060;17.226;2023-04-27T09:03:25;101961.28;;;10.25;49.38
44872;BME280;30602;51.060;17.226;2023-04-27T09:06:48;101950.91;;;10.36;47.83
44872;BME280;30602;51.060;17.226;2023-04-27T09:10:08;101948.74;;;10.68;51.31
44872;BME280;30602;51.060;17.226;2023-04-27T09:13:49;101950.67;;;10.63;49.14
44872;BME280;30602;51.060;17.226;2023-04-27T09:17:13;101945.28;;;10.88;49.86
44872;BME280;30602;51.060;17.226;2023-04-27T09:20:33;101946.13;;;10.66;49.70
44872;BME280;30602;51.060;17.226;2023-04-27T09:24:11;101940.42;;;10.73;50.20
44872;BME280;30602;51.060;17.226;2023-04-27T09:28:03;101928.85;;;10.40;47.55
44872;BME280;30602;51.060;17.226;2023-04-27T09:31:34;101942.74;;;10.37;50.26
44872;BME280;30602;51.060;17.226;2023-04-27T09:35:32;101947.34;;;10.14;51.07
44872;BME280;30602;51.060;17.226;2023-04-27T09:39:15;101949.27;;;10.15;50.54
44872;BME280;30602;51.060;17.226;2023-04-27T09:42:36;101951.79;;;10.30;49.82
44872;BME280;30602;51.060;17.226;2023-04-27T09:46:21;101943.85;;;10.42;50.14
44872;BME280;30602;51.060;17.226;2023-04-27T09:50:13;101941.75;;;10.54;50.94
44872;BME280;30602;51.060;17.226;2023-04-27T09:53:45;101941.96;;;10.72;52.46
44872;BME280;30602;51.060;17.226;2023-04-27T10:01:50;101942.66;;;10.58;52.04
44872;BME280;30602;51.060;17.226;2023-04-27T10:09:33;101936.39;;;10.62;50.82
44872;BME280;30602;51.060;17.226;2023-04-27T10:13:21;101919.84;;;10.66;52.28
44872;BME280;30602;51.060;17.226;2023-04-27T10:16:45;101938.51;;;10.49;50.38
44872;BME280;30602;51.060;17.226;2023-04-27T10:20:34;101934.57;;;10.95;51.37
44872;BME280;30602;51.060;17.226;2023-04-27T10:23:54;101927.85;;;11.34;51.17
44872;BME280;30602;51.060;17.226;2023-04-27T10:27:58;101930.84;;;11.15;49.03
44872;BME280;30602;51.060;17.226;2023-04-27T10:31:29;101936.27;;;10.86;49.89
44872;BME280;30602;51.060;17.226;2023-04-27T10:35:12;101937.06;;;10.62;50.29
44872;BME280;30602;51.060;17.226;2023-04-27T10:38:38;101933.23;;;10.43;50.27
44872;BME280;30602;51.060;17.226;2023-04-27T10:42:36;101933.95;;;10.47;51.34
44872;BME280;30602;51.060;17.226;2023-04-27T10:46:19;101933.08;;;10.34;47.66
44872;BME280;30602;51.060;17.226;2023-04-27T10:50:10;101937.72;;;10.63;49.58
44872;BME280;30602;51.060;17.226;2023-04-27T10:53:36;101933.94;;;10.82;49.34
44872;BME280;30602;51.060;17.226;2023-04-27T11:00:50;101936.02;;;11.01;48.65
44872;BME280;30602;51.060;17.226;2023-04-27T11:04:23;101933.54;;;11.16;48.65
44872;BME280;30602;51.060;17.226;2023-04-27T11:11:36;101937.39;;;11.34;51.55
44872;BME280;30602;51.060;17.226;2023-04-27T11:15:52;101936.27;;;11.45;48.98
44872;BME280;30602;51.060;17.226;2023-04-27T11:19:14;101931.32;;;11.71;49.03
44872;BME280;30602;51.060;17.226;2023-04-27T11:22:43;101928.44;;;11.74;47.15
44872;BME280;30602;51.060;17.226;2023-04-27T11:26:40;101935.23;;;11.41;48.70
44872;BME280;30602;51.060;17.226;2023-04-27T11:30:25;101948.25;;;11.08;46.99
44872;BME280;30602;51.060;17.226;2023-04-27T11:33:59;101937.39;;;10.38;50.79
44872;BME280;30602;51.060;17.226;2023-04-27T11:37:57;101958.82;;;10.06;55.88
44872;BME280;30602;51.060;17.226;2023-04-27T11:41:48;101963.56;;;9.73;54.69
44872;BME280;30602;51.060;17.226;2023-04-27T11:45:30;101962.92;;;9.67;53.51
44872;BME280;30602;51.060;17.226;2023-04-27T11:49:15;101958.48;;;9.64;54.62
44872;BME280;30602;51.060;17.226;2023-04-27T11:53:41;101959.63;;;9.73;53.15
44872;BME280;30602;51.060;17.226;2023-04-27T11:57:10;101962.59;;;9.92;51.58
44872;BME280;30602;51.060;17.226;2023-04-27T12:01:03;101959.12;;;9.94;51.64
44872;BME280;30602;51.060;17.226;2023-04-27T12:04:54;101964.66;;;9.88;49.78
44872;BME280;30602;51.060;17.226;2023-04-27T12:08:33;101971.36;;;9.66;50.88
44872;BME280;30602;51.060;17.226;2023-04-27T12:11:54;101978.08;;;9.68;51.09
44872;BME280;30602;51.060;17.226;2023-04-27T12:15:16;101971.83;;;10.14;51.87
44872;BME280;30602;51.060;17.226;2023-04-27T12:18:55;101971.84;;;10.38;49.41
44872;BME280;30602;51.060;17.226;2023-04-27T12:23:00;101961.83;;;10.52;47.15
44872;BME280;30602;51.060;17.226;2023-04-27T12:26:43;101952.27;;;10.81;48.65
44872;BME280;30602;51.060;17.226;2023-04-27T12:30:28;101962.80;;;10.95;47.57
44872;BME280;30602;51.060;17.226;2023-04-27T12:34:11;101956.52;;;11.08;47.33
44872;BME280;30602;51.060;17.226;2023-04-27T12:38:05;101951.43;;;11.24;46.22
44872;BME280;30602;51.060;17.226;2023-04-27T12:41:27;101939.30;;;11.59;46.10
44872;BME280;30602;51.060;17.226;2023-04-27T12:44:46;101950.06;;;11.25;44.94
44872;BME280;30602;51.060;17.226;2023-04-27T12:48:29;101952.81;;;10.82;45.52
44872;BME280;30602;51.060;17.226;2023-04-27T12:52:00;101954.91;;;11.16;47.57
44872;BME280;30602;51.060;17.226;2023-04-27T12:55:32;101950.53;;;11.58;45.73
44872;BME280;30602;51.060;17.226;2023-04-27T12:58:54;101948.95;;;11.62;45.65
44872;BME280;30602;51.060;17.226;2023-04-27T13:02:56;101953.59;;;11.53;47.06
44872;BME280;30602;51.060;17.226;2023-04-27T13:06:15;101948.81;;;11.53;45.84
44872;BME280;30602;51.060;17.226;2023-04-27T13:10:14;101951.00;;;11.97;45.38
44872;BME280;30602;51.060;17.226;2023-04-27T13:13:54;101943.46;;;12.43;44.21
44872;BME280;30602;51.060;17.226;2023-04-27T13:17:48;101942.93;;;12.41;40.58
44872;BME280;30602;51.060;17.226;2023-04-27T13:21:41;101937.15;;;12.64;40.20
44872;BME280;30602;51.060;17.226;2023-04-27T13:25:45;101939.63;;;12.14;40.75
44872;BME280;30602;51.060;17.226;2023-04-27T13:33:38;101943.46;;;11.68;41.86
44872;BME280;30602;51.060;17.226;2023-04-27T13:38:05;101947.87;;;12.27;41.62
44872;BME280;30602;51.060;17.226;2023-04-27T13:41:44;101945.95;;;12.51;39.33
44872;BME280;30602;51.060;17.226;2023-04-27T13:45:08;101932.00;;;12.51;39.20
44872;BME280;30602;51.060;17.226;2023-04-27T13:48:30;101946.97;;;12.50;37.03
44872;BME280;30602;51.060;17.226;2023-04-27T13:56:27;101927.80;;;12.97;37.70
44872;BME280;30602;51.060;17.226;2023-04-27T14:00:07;101930.11;;;13.09;36.20
44872;BME280;30602;51.060;17.226;2023-04-27T14:03:34;101931.81;;;13.38;38.64
44872;BME280;30602;51.060;17.226;2023-04-27T14:07:07;101936.13;;;13.34;35.22
44872;BME280;30602;51.060;17.226;2023-04-27T14:11:01;101946.60;;;12.94;36.18
44872;BME280;30602;51.060;17.226;2023-04-27T14:14:25;101952.56;;;12.30;42.96
44872;BME280;30602;51.060;17.226;2023-04-27T14:18:17;101954.86;;;11.99;45.31
44872;BME280;30602;51.060;17.226;2023-04-27T14:21:37;101955.38;;;11.97;44.62
44872;BME280;30602;51.060;17.226;2023-04-27T14:25:55;101956.17;;;11.72;46.37
44872;BME280;30602;51.060;17.226;2023-04-27T14:29:37;101958.21;;;11.94;45.70
44872;BME280;30602;51.060;17.226;2023-04-27T14:33:00;101963.88;;;11.66;45.88
44872;BME280;30602;51.060;17.226;2023-04-27T14:36:44;101963.70;;;11.66;48.07
44872;BME280;30602;51.060;17.226;2023-04-27T14:40:07;101966.76;;;11.66;48.38
44872;BME280;30602;51.060;17.226;2023-04-27T14:44:11;101965.06;;;11.69;45.90
44872;BME280;30602;51.060;17.226;2023-04-27T14:47:46;101965.27;;;11.73;45.99
44872;BME280;30602;51.060;17.226;2023-04-27T14:51:05;101962.38;;;11.72;44.72
44872;BME280;30602;51.060;17.226;2023-04-27T14:54:27;101956.95;;;11.97;45.57
44872;BME280;30602;51.060;17.226;2023-04-27T14:58:01;101963.73;;;11.69;46.13
44872;BME280;30602;51.060;17.226;2023-04-27T15:01:20;101945.13;;;11.55;45.91
44872;BME280;30602;51.060;17.226;2023-04-27T15:08:51;101960.44;;;11.80;45.00
44872;BME280;30602;51.060;17.226;2023-04-27T15:12:38;101958.58;;;11.54;44.27
44872;BME280;30602;51.060;17.226;2023-04-27T15:16:21;101954.50;;;11.53;44.29
44872;BME280;30602;51.060;17.226;2023-04-27T15:24:13;101953.34;;;11.62;45.17
44872;BME280;30602;51.060;17.226;2023-04-27T15:27:35;101957.55;;;11.80;42.87
44872;BME280;30602;51.060;17.226;2023-04-27T15:30:59;101960.23;;;11.90;43.33
44872;BME280;30602;51.060;17.226;2023-04-27T15:35:02;101962.65;;;11.61;43.54
44872;BME280;30602;51.060;17.226;2023-04-27T15:38:25;101958.25;;;11.57;44.07
44872;BME280;30602;51.060;17.226;2023-04-27T15:41:48;101959.17;;;11.62;44.19
44872;BME280;30602;51.060;17.226;2023-04-27T15:45:34;101961.02;;;11.55;44.47
44872;BME280;30602;51.060;17.226;2023-04-27T15:49:06;101960.71;;;11.25;44.92
44872;BME280;30602;51.060;17.226;2023-04-27T15:52:30;101964.82;;;11.11;46.38
44872;BME280;30602;51.060;17.226;2023-04-27T15:55:53;101964.65;;;11.05;46.79
44872;BME280;30602;51.060;17.226;2023-04-27T15:59:41;101966.60;;;11.03;45.83
44872;BME280;30602;51.060;17.226;2023-04-27T16:03:24;101959.48;;;11.33;47.26
44872;BME280;30602;51.060;17.226;2023-04-27T16:06:58;101958.07;;;11.01;45.89
44872;BME280;30602;51.060;17.226;2023-04-27T16:10:20;101960.66;;;10.91;45.95
44872;BME280;30602;51.060;17.226;2023-04-27T16:14:37;101962.06;;;10.79;45.42
44872;BME280;30602;51.060;17.226;2023-04-27T16:18:12;101962.93;;;10.45;46.10
44872;BME280;30602;51.060;17.226;2023-04-27T16:21:35;101959.54;;;10.52;47.41
44872;BME280;30602;51.060;17.226;2023-04-27T16:25:18;101963.02;;;10.33;48.43
44872;BME280;30602;51.060;17.226;2023-04-27T16:28:42;101964.66;;;10.27;47.96
44872;BME280;30602;51.060;17.226;2023-04-27T16:32:30;101959.76;;;10.17;48.08
44872;BME280;30602;51.060;17.226;2023-04-27T16:36:12;101965.41;;;10.12;48.58
44872;BME280;30602;51.060;17.226;2023-04-27T16:39:33;101972.82;;;10.12;48.86
44872;BME280;30602;51.060;17.226;2023-04-27T16:43:28;101968.02;;;10.11;50.90
44872;BME280;30602;51.060;17.226;2023-04-27T16:46:58;101969.64;;;10.15;48.29
44872;BME280;30602;51.060;17.226;2023-04-27T16:50:42;101972.52;;;10.18;48.67
44872;BME280;30602;51.060;17.226;2023-04-27T16:54:03;101974.13;;;10.25;49.02
44872;BME280;30602;51.060;17.226;2023-04-27T16:57:46;101973.94;;;10.21;54.04
44872;BME280;30602;51.060;17.226;2023-04-27T17:01:11;101960.26;;;10.02;48.98
44872;BME280;30602;51.060;17.226;2023-04-27T17:04:30;101978.59;;;10.17;46.88
44872;BME280;30602;51.060;17.226;2023-04-27T17:08:02;101974.18;;;10.18;48.64
44872;BME280;30602;51.060;17.226;2023-04-27T17:11:31;101975.28;;;10.12;50.08
44872;BME280;30602;51.060;17.226;2023-04-27T17:15:29;101977.96;;;10.10;48.87
44872;BME280;30602;51.060;17.226;2023-04-27T17:18:52;101984.15;;;9.97;51.56
44872;BME280;30602;51.060;17.226;2023-04-27T17:26:19;101974.34;;;9.73;51.54
44872;BME280;30602;51.060;17.226;2023-04-27T17:29:52;101965.80;;;9.73;50.55
44872;BME280;30602;51.060;17.226;2023-04-27T17:33:33;101977.77;;;9.72;54.02
44872;BME280;30602;51.060;17.226;2023-04-27T17:37:39;101976.47;;;9.47;54.84
44872;BME280;30602;51.060;17.226;2023-04-27T17:41:40;101978.33;;;9.35;56.65
44872;BME280;30602;51.060;17.226;2023-04-27T17:45:28;101975.89;;;9.17;58.67
44872;BME280;30602;51.060;17.226;2023-04-27T17:49:17;101973.85;;;9.03;59.82
44872;BME280;30602;51.060;17.226;2023-04-27T17:52:41;101978.34;;;8.90;59.54
44872;BME280;30602;51.060;17.226;2023-04-27T17:56:45;101977.23;;;8.69;63.24
44872;BME280;30602;51.060;17.226;2023-04-27T18:00:36;101973.80;;;8.50;65.97
44872;BME280;30602;51.060;17.226;2023-04-27T18:04:27;101976.49;;;8.23;65.80
44872;BME280;30602;51.060;17.226;2023-04-27T18:08:24;101978.74;;;8.11;67.88
44872;BME280;30602;51.060;17.226;2023-04-27T18:12:09;101986.33;;;8.01;68.38
44872;BME280;30602;51.060;17.226;2023-04-27T18:16:08;101991.70;;;7.89;69.16
44872;BME280;30602;51.060;17.226;2023-04-27T18:28:15;102007.56;;;7.16;71.86
44872;BME280;30602;51.060;17.226;2023-04-27T18:31:41;102014.55;;;7.10;71.23
44872;BME280;30602;51.060;17.226;2023-04-27T18:35:26;102011.02;;;6.72;72.97
44872;BME280;30602;51.060;17.226;2023-04-27T18:39:16;102020.23;;;6.63;73.64
44872;BME280;30602;51.060;17.226;2023-04-27T18:42:36;102022.29;;;6.66;73.38
44872;BME280;30602;51.060;17.226;2023-04-27T18:45:58;102022.56;;;6.57;74.44
44872;BME280;30602;51.060;17.226;2023-04-27T18:49:42;102034.96;;;6.43;75.58
44872;BME280;30602;51.060;17.226;2023-04-27T18:53:23;102039.35;;;6.38;76.10
44872;BME280;30602;51.060;17.226;2023-04-27T18:57:35;102037.95;;;6.39;76.74
44872;BME280;30602;51.060;17.226;2023-04-27T19:00:59;102038.45;;;6.32;77.90
44872;BME280;30602;51.060;17.226;2023-04-27T19:04:55;102043.12;;;6.16;78.98
44872;BME280;30602;51.060;17.226;2023-04-27T19:08:15;102042.71;;;6.06;78.94
44872;BME280;30602;51.060;17.226;2023-04-27T19:12:15;102048.99;;;5.95;79.03
44872;BME280;30602;51.060;17.226;2023-04-27T19:16:10;102044.36;;;5.97;79.77
44872;BME280;30602;51.060;17.226;2023-04-27T19:20:09;102044.98;;;5.94;79.68
44872;BME280;30602;51.060;17.226;2023-04-27T19:23:52;102049.26;;;5.98;79.28
44872;BME280;30602;51.060;17.226;2023-04-27T19:27:12;102051.12;;;5.95;79.66
44872;BME280;30602;51.060;17.226;2023-04-27T19:30:35;102047.87;;;5.89;79.78
44872;BME280;30602;51.060;17.226;2023-04-27T19:33:57;102058.31;;;5.76;80.09
44872;BME280;30602;51.060;17.226;2023-04-27T19:37:37;102059.77;;;5.59;81.15
44872;BME280;30602;51.060;17.226;2023-04-27T19:41:03;102060.34;;;5.62;81.28
44872;BME280;30602;51.060;17.226;2023-04-27T19:44:41;102065.85;;;5.52;81.11
44872;BME280;30602;51.060;17.226;2023-04-27T19:48:53;102066.21;;;5.61;80.10
44872;BME280;30602;51.060;17.226;2023-04-27T19:52:16;102068.48;;;5.65;80.47
44872;BME280;30602;51.060;17.226;2023-04-27T19:55:52;102069.63;;;5.59;80.84
44872;BME280;30602;51.060;17.226;2023-04-27T19:59:18;102068.74;;;5.61;80.84
44872;BME280;30602;51.060;17.226;2023-04-27T20:02:41;102063.62;;;5.65;80.48
44872;BME280;30602;51.060;17.226;2023-04-27T20:06:08;102025.93;;;5.28;83.42
44872;BME280;30602;51.060;17.226;2023-04-27T20:09:47;102065.47;;;5.53;84.61